sensor_id;sensor_type;location;lat;lon;timestamp;temperature;humidity
5899;DHT22;2975;50.956;6.962;2022-11-09T00:02:15;14.80;99.90
5899;DHT22;2975;50.956;6.962;2022-11-09T00:04:41;14.90;99.90
5899;DHT22;2975;50.956;6.962;2022-11-09T00:07:06;14.90;99.90
5899;DHT22;2975;50.956;6.962;2022-11-09T00:09:32;14.90;99.90
5899;DHT22;2975;50.956;6.962;2022-11-09T00:11:58;14.90;99.90
5899;DHT22;2975;50.956;6.962;2022-11-09T00:14:24;14.90;99.90
5899;DHT22;2975;50.956;6.962;2022-11-09T00:16:50;15.00;99.90
5899;DHT22;2975;50.956;6.962;2022-11-09T00:19:16;14.90;99.90
5899;DHT22;2975;50.956;6.962;2022-11-09T00:21:41;14.80;99.90
5899;DHT22;2975;50.956;6.962;2022-11-09T00:24:07;14.80;99.90
5899;DHT22;2975;50.956;6.962;2022-11-09T00:26:32;14.80;99.90
5899;DHT22;2975;50.956;6.962;2022-11-09T00:28:58;14.80;99.90
5899;DHT22;2975;50.956;6.962;2022-11-09T00:31:25;14.80;99.90
5899;DHT22;2975;50.956;6.962;2022-11-09T00:33:53;14.90;99.90
5899;DHT22;2975;50.956;6.962;2022-11-09T00:36:19;14.80;99.90
5899;DHT22;2975;50.956;6.962;2022-11-09T00:38:50;14.90;99.90
5899;DHT22;2975;50.956;6.962;2022-11-09T00:41:17;14.90;99.90
5899;DHT22;2975;50.956;6.962;2022-11-09T00:43:42;15.00;99.90
5899;DHT22;2975;50.956;6.962;2022-11-09T00:46:08;14.90;99.90
5899;DHT22;2975;50.956;6.962;2022-11-09T00:48:34;14.80;99.90
5899;DHT22;2975;50.956;6.962;2022-11-09T00:50:59;14.80;99.90
5899;DHT22;2975;50.956;6.962;2022-11-09T00:53:25;14.70;99.90
5899;DHT22;2975;50.956;6.962;2022-11-09T00:55:55;14.60;99.90
5899;DHT22;2975;50.956;6.962;2022-11-09T00:58:21;14.50;99.90
5899;DHT22;2975;50.956;6.962;2022-11-09T01:00:47;14.50;99.90
5899;DHT22;2975;50.956;6.962;2022-11-09T01:03:13;14.50;99.90
5899;DHT22;2975;50.956;6.962;2022-11-09T01:05:38;14.40;99.90
5899;DHT22;2975;50.956;6.962;2022-11-09T01:08:05;14.30;99.90
5899;DHT22;2975;50.956;6.962;2022-11-09T01:10:31;14.40;99.90
5899;DHT22;2975;50.956;6.962;2022-11-09T01:12:57;14.40;99.90
5899;DHT22;2975;50.956;6.962;2022-11-09T01:15:23;14.50;99.90
5899;DHT22;2975;50.956;6.962;2022-11-09T01:17:48;14.50;99.90
5899;DHT22;2975;50.956;6.962;2022-11-09T01:20:15;14.50;99.90
5899;DHT22;2975;50.956;6.962;2022-11-09T01:22:40;14.40;99.90
5899;DHT22;2975;50.956;6.962;2022-11-09T01:25:07;14.30;99.90
5899;DHT22;2975;50.956;6.962;2022-11-09T01:27:33;14.20;99.90
5899;DHT22;2975;50.956;6.962;2022-11-09T01:29:58;14.20;99.90
5899;DHT22;2975;50.956;6.962;2022-11-09T01:32:24;14.10;99.90
5899;DHT22;2975;50.956;6.962;2022-11-09T01:34:50;14.10;99.90
5899;DHT22;2975;50.956;6.962;2022-11-09T01:37:15;14.10;99.90
5899;DHT22;2975;50.956;6.962;2022-11-09T01:39:41;14.10;99.90
5899;DHT22;2975;50.956;6.962;2022-11-09T01:42:06;14.10;99.90
5899;DHT22;2975;50.956;6.962;2022-11-09T01:44:35;14.10;99.90
5899;DHT22;2975;50.956;6.962;2022-11-09T01:47:11;14.10;99.90
5899;DHT22;2975;50.956;6.962;2022-11-09T01:49:56;14.10;99.90
5899;DHT22;2975;50.956;6.962;2022-11-09T01:52:35;14.10;99.90
5899;DHT22;2975;50.956;6.962;2022-11-09T01:55:04;14.10;99.90
5899;DHT22;2975;50.956;6.962;2022-11-09T02:00:18;14.00;99.90
5899;DHT22;2975;50.956;6.962;2022-11-09T02:03:14;14.00;99.90
5899;DHT22;2975;50.956;6.962;2022-11-09T02:05:42;14.00;99.90
5899;DHT22;2975;50.956;6.962;2022-11-09T02:08:09;13.90;99.90
5899;DHT22;2975;50.956;6.962;2022-11-09T02:13:31;13.90;99.90
5899;DHT22;2975;50.956;6.962;2022-11-09T02:15:57;13.90;99.90
5899;DHT22;2975;50.956;6.962;2022-11-09T02:18:23;14.00;99.90
5899;DHT22;2975;50.956;6.962;2022-11-09T02:20:53;14.00;99.90
5899;DHT22;2975;50.956;6.962;2022-11-09T02:23:20;14.00;99.90
5899;DHT22;2975;50.956;6.962;2022-11-09T02:25:50;13.90;99.90
5899;DHT22;2975;50.956;6.962;2022-11-09T02:28:18;13.90;99.90
5899;DHT22;2975;50.956;6.962;2022-11-09T02:30:47;13.80;99.90
5899;DHT22;2975;50.956;6.962;2022-11-09T02:33:13;13.80;99.90
5899;DHT22;2975;50.956;6.962;2022-11-09T02:35:39;13.80;99.90
5899;DHT22;2975;50.956;6.962;2022-11-09T02:38:09;13.80;99.90
5899;DHT22;2975;50.956;6.962;2022-11-09T02:40:35;13.80;99.90
5899;DHT22;2975;50.956;6.962;2022-11-09T02:43:04;13.80;99.90
5899;DHT22;2975;50.956;6.962;2022-11-09T02:45:31;13.80;99.90
5899;DHT22;2975;50.956;6.962;2022-11-09T02:47:56;13.80;99.90
5899;DHT22;2975;50.956;6.962;2022-11-09T02:50:22;13.90;99.90
5899;DHT22;2975;50.956;6.962;2022-11-09T02:52:48;13.90;99.90
5899;DHT22;2975;50.956;6.962;2022-11-09T02:55:13;13.90;99.90
5899;DHT22;2975;50.956;6.962;2022-11-09T02:57:39;14.00;99.90
5899;DHT22;2975;50.956;6.962;2022-11-09T03:00:06;14.00;99.90
5899;DHT22;2975;50.956;6.962;2022-11-09T03:02:31;14.00;99.90
5899;DHT22;2975;50.956;6.962;2022-11-09T03:04:57;14.00;99.90
5899;DHT22;2975;50.956;6.962;2022-11-09T03:07:23;14.00;99.90
5899;DHT22;2975;50.956;6.962;2022-11-09T03:09:48;14.10;99.90
5899;DHT22;2975;50.956;6.962;2022-11-09T03:12:14;14.10;99.90
5899;DHT22;2975;50.956;6.962;2022-11-09T03:15:06;14.20;99.90
5899;DHT22;2975;50.956;6.962;2022-11-09T03:17:32;14.10;99.90
5899;DHT22;2975;50.956;6.962;2022-11-09T03:19:58;14.20;99.90
5899;DHT22;2975;50.956;6.962;2022-11-09T03:22:24;14.20;99.90
5899;DHT22;2975;50.956;6.962;2022-11-09T03:24:49;14.20;99.90
5899;DHT22;2975;50.956;6.962;2022-11-09T03:27:15;14.30;99.90
5899;DHT22;2975;50.956;6.962;2022-11-09T03:29:41;14.30;99.90
5899;DHT22;2975;50.956;6.962;2022-11-09T03:32:07;14.30;99.90
5899;DHT22;2975;50.956;6.962;2022-11-09T03:34:33;14.30;99.90
5899;DHT22;2975;50.956;6.962;2022-11-09T03:36:58;14.40;99.90
5899;DHT22;2975;50.956;6.962;2022-11-09T03:39:24;14.40;99.90
5899;DHT22;2975;50.956;6.962;2022-11-09T03:41:49;14.40;99.90
5899;DHT22;2975;50.956;6.962;2022-11-09T03:44:15;14.40;99.90
5899;DHT22;2975;50.956;6.962;2022-11-09T03:46:41;14.40;99.90
5899;DHT22;2975;50.956;6.962;2022-11-09T03:49:06;14.40;99.90
5899;DHT22;2975;50.956;6.962;2022-11-09T03:51:32;14.40;99.90
5899;DHT22;2975;50.956;6.962;2022-11-09T03:53:58;14.50;99.90
5899;DHT22;2975;50.956;6.962;2022-11-09T03:56:23;14.50;99.90
5899;DHT22;2975;50.956;6.962;2022-11-09T03:58:49;14.60;99.90
5899;DHT22;2975;50.956;6.962;2022-11-09T04:01:15;14.70;99.90
5899;DHT22;2975;50.956;6.962;2022-11-09T04:03:42;14.80;99.90
5899;DHT22;2975;50.956;6.962;2022-11-09T04:06:07;14.70;99.90
5899;DHT22;2975;50.956;6.962;2022-11-09T04:08:33;14.70;99.90
5899;DHT22;2975;50.956;6.962;2022-11-09T04:10:59;14.70;99.90
5899;DHT22;2975;50.956;6.962;2022-11-09T04:13:25;14.70;99.90
5899;DHT22;2975;50.956;6.962;2022-11-09T04:15:50;14.80;99.90
5899;DHT22;2975;50.956;6.962;2022-11-09T04:18:16;14.70;99.90
5899;DHT22;2975;50.956;6.962;2022-11-09T04:20:42;14.70;99.90
5899;DHT22;2975;50.956;6.962;2022-11-09T04:23:11;14.70;99.90
5899;DHT22;2975;50.956;6.962;2022-11-09T04:25:38;14.60;99.90
5899;DHT22;2975;50.956;6.962;2022-11-09T04:28:06;14.60;99.90
5899;DHT22;2975;50.956;6.962;2022-11-09T04:30:34;14.50;99.90
5899;DHT22;2975;50.956;6.962;2022-11-09T04:33:01;14.50;99.90
5899;DHT22;2975;50.956;6.962;2022-11-09T04:35:27;14.50;99.90
5899;DHT22;2975;50.956;6.962;2022-11-09T04:40:24;14.50;99.90
5899;DHT22;2975;50.956;6.962;2022-11-09T04:42:50;14.50;99.90
5899;DHT22;2975;50.956;6.962;2022-11-09T04:45:16;14.50;99.90
5899;DHT22;2975;50.956;6.962;2022-11-09T04:47:41;14.50;99.90
5899;DHT22;2975;50.956;6.962;2022-11-09T04:50:08;14.50;99.90
5899;DHT22;2975;50.956;6.962;2022-11-09T04:52:33;14.60;99.90
5899;DHT22;2975;50.956;6.962;2022-11-09T04:54:59;14.70;99.90
5899;DHT22;2975;50.956;6.962;2022-11-09T04:57:24;14.70;99.90
5899;DHT22;2975;50.956;6.962;2022-11-09T04:59:50;14.70;99.90
5899;DHT22;2975;50.956;6.962;2022-11-09T05:02:15;14.70;99.90
5899;DHT22;2975;50.956;6.962;2022-11-09T05:04:41;14.70;99.90
5899;DHT22;2975;50.956;6.962;2022-11-09T05:07:07;14.70;99.90
5899;DHT22;2975;50.956;6.962;2022-11-09T05:09:32;14.70;99.90
5899;DHT22;2975;50.956;6.962;2022-11-09T05:11:58;14.70;99.90
5899;DHT22;2975;50.956;6.962;2022-11-09T05:14:23;14.70;99.90
5899;DHT22;2975;50.956;6.962;2022-11-09T05:16:49;14.70;99.90
5899;DHT22;2975;50.956;6.962;2022-11-09T05:19:15;14.60;99.90
5899;DHT22;2975;50.956;6.962;2022-11-09T05:21:40;14.60;99.90
5899;DHT22;2975;50.956;6.962;2022-11-09T05:24:06;14.60;99.90
5899;DHT22;2975;50.956;6.962;2022-11-09T05:26:34;14.60;99.90
5899;DHT22;2975;50.956;6.962;2022-11-09T05:29:02;14.50;99.90
5899;DHT22;2975;50.956;6.962;2022-11-09T05:31:28;14.50;99.90
5899;DHT22;2975;50.956;6.962;2022-11-09T05:33:54;14.60;99.90
5899;DHT22;2975;50.956;6.962;2022-11-09T05:36:21;14.50;99.90
5899;DHT22;2975;50.956;6.962;2022-11-09T05:38:47;14.40;99.90
5899;DHT22;2975;50.956;6.962;2022-11-09T05:41:13;14.40;99.90
5899;DHT22;2975;50.956;6.962;2022-11-09T05:43:39;14.30;99.90
5899;DHT22;2975;50.956;6.962;2022-11-09T05:46:05;14.20;99.90
5899;DHT22;2975;50.956;6.962;2022-11-09T05:48:31;14.20;99.90
5899;DHT22;2975;50.956;6.962;2022-11-09T05:51:03;14.20;99.90
5899;DHT22;2975;50.956;6.962;2022-11-09T05:53:29;14.20;99.90
5899;DHT22;2975;50.956;6.962;2022-11-09T05:55:55;14.20;99.90
5899;DHT22;2975;50.956;6.962;2022-11-09T05:58:25;14.10;99.90
5899;DHT22;2975;50.956;6.962;2022-11-09T06:00:50;14.10;99.90
5899;DHT22;2975;50.956;6.962;2022-11-09T06:03:16;14.00;99.90
5899;DHT22;2975;50.956;6.962;2022-11-09T06:05:42;14.00;99.90
5899;DHT22;2975;50.956;6.962;2022-11-09T06:08:12;14.00;99.90
5899;DHT22;2975;50.956;6.962;2022-11-09T06:10:38;14.10;99.90
5899;DHT22;2975;50.956;6.962;2022-11-09T06:13:04;14.00;99.90
5899;DHT22;2975;50.956;6.962;2022-11-09T06:15:31;14.10;99.90
5899;DHT22;2975;50.956;6.962;2022-11-09T06:17:57;14.10;99.90
5899;DHT22;2975;50.956;6.962;2022-11-09T06:20:24;14.00;99.90
5899;DHT22;2975;50.956;6.962;2022-11-09T06:22:55;14.10;99.90
5899;DHT22;2975;50.956;6.962;2022-11-09T06:25:21;14.10;99.90
5899;DHT22;2975;50.956;6.962;2022-11-09T06:27:47;14.10;99.90
5899;DHT22;2975;50.956;6.962;2022-11-09T06:30:13;14.10;99.90
5899;DHT22;2975;50.956;6.962;2022-11-09T06:32:38;14.10;99.90
5899;DHT22;2975;50.956;6.962;2022-11-09T06:35:04;14.10;99.90
5899;DHT22;2975;50.956;6.962;2022-11-09T06:37:30;14.10;99.90
5899;DHT22;2975;50.956;6.962;2022-11-09T06:39:56;14.10;99.90
5899;DHT22;2975;50.956;6.962;2022-11-09T06:42:21;14.20;99.90
5899;DHT22;2975;50.956;6.962;2022-11-09T06:44:47;14.20;99.90
5899;DHT22;2975;50.956;6.962;2022-11-09T06:47:12;14.20;99.90
5899;DHT22;2975;50.956;6.962;2022-11-09T06:49:38;14.20;99.90
5899;DHT22;2975;50.956;6.962;2022-11-09T06:52:03;14.20;99.90
5899;DHT22;2975;50.956;6.962;2022-11-09T06:54:29;14.40;99.90
5899;DHT22;2975;50.956;6.962;2022-11-09T06:56:55;14.40;99.90
5899;DHT22;2975;50.956;6.962;2022-11-09T06:59:21;14.20;99.90
5899;DHT22;2975;50.956;6.962;2022-11-09T07:01:47;14.10;99.90
5899;DHT22;2975;50.956;6.962;2022-11-09T07:04:13;14.00;99.90
5899;DHT22;2975;50.956;6.962;2022-11-09T07:06:40;13.90;99.90
5899;DHT22;2975;50.956;6.962;2022-11-09T07:09:07;13.80;99.90
5899;DHT22;2975;50.956;6.962;2022-11-09T07:11:32;13.80;99.90
5899;DHT22;2975;50.956;6.962;2022-11-09T07:13:58;13.90;99.90
5899;DHT22;2975;50.956;6.962;2022-11-09T07:16:24;13.90;99.90
5899;DHT22;2975;50.956;6.962;2022-11-09T07:18:49;13.90;99.90
5899;DHT22;2975;50.956;6.962;2022-11-09T07:21:15;13.90;99.90
5899;DHT22;2975;50.956;6.962;2022-11-09T07:23:41;13.90;99.90
5899;DHT22;2975;50.956;6.962;2022-11-09T07:26:06;13.90;99.90
5899;DHT22;2975;50.956;6.962;2022-11-09T07:28:32;14.00;99.90
5899;DHT22;2975;50.956;6.962;2022-11-09T07:30:58;14.10;99.90
5899;DHT22;2975;50.956;6.962;2022-11-09T07:33:24;14.10;99.90
5899;DHT22;2975;50.956;6.962;2022-11-09T07:35:50;14.00;99.90
5899;DHT22;2975;50.956;6.962;2022-11-09T07:38:15;14.00;99.90
5899;DHT22;2975;50.956;6.962;2022-11-09T07:40:41;13.90;99.90
5899;DHT22;2975;50.956;6.962;2022-11-09T07:43:07;13.90;99.90
5899;DHT22;2975;50.956;6.962;2022-11-09T07:45:35;13.80;99.90
5899;DHT22;2975;50.956;6.962;2022-11-09T07:48:05;13.80;99.90
5899;DHT22;2975;50.956;6.962;2022-11-09T07:50:33;13.90;99.90
5899;DHT22;2975;50.956;6.962;2022-11-09T07:52:59;14.00;99.90
5899;DHT22;2975;50.956;6.962;2022-11-09T07:55:27;14.10;99.90
5899;DHT22;2975;50.956;6.962;2022-11-09T07:58:01;14.20;99.90
5899;DHT22;2975;50.956;6.962;2022-11-09T08:00:28;14.20;99.90
5899;DHT22;2975;50.956;6.962;2022-11-09T08:02:54;14.30;99.90
5899;DHT22;2975;50.956;6.962;2022-11-09T08:05:20;14.40;99.90
5899;DHT22;2975;50.956;6.962;2022-11-09T08:07:46;14.40;99.90
5899;DHT22;2975;50.956;6.962;2022-11-09T08:10:12;14.50;99.90
5899;DHT22;2975;50.956;6.962;2022-11-09T08:12:38;14.60;99.90
5899;DHT22;2975;50.956;6.962;2022-11-09T08:15:05;14.70;99.90
5899;DHT22;2975;50.956;6.962;2022-11-09T08:17:30;14.80;99.90
5899;DHT22;2975;50.956;6.962;2022-11-09T08:19:56;14.90;99.90
5899;DHT22;2975;50.956;6.962;2022-11-09T08:22:22;14.90;99.90
5899;DHT22;2975;50.956;6.962;2022-11-09T08:24:47;15.00;99.90
5899;DHT22;2975;50.956;6.962;2022-11-09T08:27:13;15.00;99.90
5899;DHT22;2975;50.956;6.962;2022-11-09T08:29:39;14.90;99.90
5899;DHT22;2975;50.956;6.962;2022-11-09T08:32:04;14.90;99.90
5899;DHT22;2975;50.956;6.962;2022-11-09T08:34:30;14.80;99.90
5899;DHT22;2975;50.956;6.962;2022-11-09T08:36:58;14.70;99.90
5899;DHT22;2975;50.956;6.962;2022-11-09T08:39:24;14.70;99.90
5899;DHT22;2975;50.956;6.962;2022-11-09T08:41:50;14.70;99.90
5899;DHT22;2975;50.956;6.962;2022-11-09T08:44:15;14.70;99.90
5899;DHT22;2975;50.956;6.962;2022-11-09T08:46:41;14.70;99.90
5899;DHT22;2975;50.956;6.962;2022-11-09T08:49:06;14.70;99.90
5899;DHT22;2975;50.956;6.962;2022-11-09T08:51:32;14.80;99.90
5899;DHT22;2975;50.956;6.962;2022-11-09T08:53:58;14.80;99.90
5899;DHT22;2975;50.956;6.962;2022-11-09T08:56:23;14.80;99.90
5899;DHT22;2975;50.956;6.962;2022-11-09T08:58:49;14.80;99.90
5899;DHT22;2975;50.956;6.962;2022-11-09T09:01:15;14.80;99.90
5899;DHT22;2975;50.956;6.962;2022-11-09T09:03:41;14.80;99.90
5899;DHT22;2975;50.956;6.962;2022-11-09T09:06:07;14.80;99.90
5899;DHT22;2975;50.956;6.962;2022-11-09T09:08:33;14.80;99.90
5899;DHT22;2975;50.956;6.962;2022-11-09T09:11:03;14.80;99.90
5899;DHT22;2975;50.956;6.962;2022-11-09T09:13:31;14.80;99.90
5899;DHT22;2975;50.956;6.962;2022-11-09T09:15:57;14.90;99.90
5899;DHT22;2975;50.956;6.962;2022-11-09T09:18:23;15.00;99.90
5899;DHT22;2975;50.956;6.962;2022-11-09T09:20:48;14.90;99.90
5899;DHT22;2975;50.956;6.962;2022-11-09T09:23:14;14.80;99.90
5899;DHT22;2975;50.956;6.962;2022-11-09T09:25:41;14.80;99.90
5899;DHT22;2975;50.956;6.962;2022-11-09T09:28:07;14.70;99.90
5899;DHT22;2975;50.956;6.962;2022-11-09T09:30:33;14.70;99.90
5899;DHT22;2975;50.956;6.962;2022-11-09T09:32:59;14.60;99.90
5899;DHT22;2975;50.956;6.962;2022-11-09T09:35:26;14.60;99.90
5899;DHT22;2975;50.956;6.962;2022-11-09T09:37:53;14.60;99.90
5899;DHT22;2975;50.956;6.962;2022-11-09T09:40:22;14.60;99.90
5899;DHT22;2975;50.956;6.962;2022-11-09T09:42:50;14.70;99.90
5899;DHT22;2975;50.956;6.962;2022-11-09T09:45:26;14.70;99.90
5899;DHT22;2975;50.956;6.962;2022-11-09T09:51:06;14.80;99.90
5899;DHT22;2975;50.956;6.962;2022-11-09T09:53:29;14.90;99.90
5899;DHT22;2975;50.956;6.962;2022-11-09T09:56:03;15.00;99.90
5899;DHT22;2975;50.956;6.962;2022-11-09T09:58:32;15.10;99.90
5899;DHT22;2975;50.956;6.962;2022-11-09T10:01:26;15.20;99.90
5899;DHT22;2975;50.956;6.962;2022-11-09T10:03:48;15.30;99.90
5899;DHT22;2975;50.956;6.962;2022-11-09T10:12:09;15.50;99.90
5899;DHT22;2975;50.956;6.962;2022-11-09T10:17:44;15.50;99.90
5899;DHT22;2975;50.956;6.962;2022-11-09T10:20:17;15.60;99.90
5899;DHT22;2975;50.956;6.962;2022-11-09T10:25:27;15.80;99.90
5899;DHT22;2975;50.956;6.962;2022-11-09T10:28:00;15.80;99.90
5899;DHT22;2975;50.956;6.962;2022-11-09T10:30:28;16.00;99.90
5899;DHT22;2975;50.956;6.962;2022-11-09T10:32:56;16.00;99.90
5899;DHT22;2975;50.956;6.962;2022-11-09T10:35:30;16.10;99.90
5899;DHT22;2975;50.956;6.962;2022-11-09T10:37:58;16.10;99.90
5899;DHT22;2975;50.956;6.962;2022-11-09T10:40:30;16.10;99.90
5899;DHT22;2975;50.956;6.962;2022-11-09T10:43:01;16.10;99.90
5899;DHT22;2975;50.956;6.962;2022-11-09T10:47:54;16.20;99.30
5899;DHT22;2975;50.956;6.962;2022-11-09T10:53:14;16.20;98.60
5899;DHT22;2975;50.956;6.962;2022-11-09T10:58:29;16.20;98.30
5899;DHT22;2975;50.956;6.962;2022-11-09T11:03:29;16.10;97.50
5899;DHT22;2975;50.956;6.962;2022-11-09T11:08:46;15.90;98.20
5899;DHT22;2975;50.956;6.962;2022-11-09T11:11:22;16.00;98.20
5899;DHT22;2975;50.956;6.962;2022-11-09T11:13:49;16.10;98.20
5899;DHT22;2975;50.956;6.962;2022-11-09T11:16:32;16.20;97.70
5899;DHT22;2975;50.956;6.962;2022-11-09T11:18:58;16.20;97.50
5899;DHT22;2975;50.956;6.962;2022-11-09T11:21:24;16.10;96.80
5899;DHT22;2975;50.956;6.962;2022-11-09T11:26:39;16.00;96.70
5899;DHT22;2975;50.956;6.962;2022-11-09T11:31:52;16.00;96.50
5899;DHT22;2975;50.956;6.962;2022-11-09T11:34:17;16.00;96.90
5899;DHT22;2975;50.956;6.962;2022-11-09T11:40:12;16.00;96.30
5899;DHT22;2975;50.956;6.962;2022-11-09T11:43:21;16.00;95.90
5899;DHT22;2975;50.956;6.962;2022-11-09T11:52:29;15.90;96.40
5899;DHT22;2975;50.956;6.962;2022-11-09T11:57:44;15.90;96.90
5899;DHT22;2975;50.956;6.962;2022-11-09T12:00:15;15.90;97.20
5899;DHT22;2975;50.956;6.962;2022-11-09T12:06:01;15.90;97.00
5899;DHT22;2975;50.956;6.962;2022-11-09T12:17:56;16.10;95.90
5899;DHT22;2975;50.956;6.962;2022-11-09T12:31:35;16.20;94.70
5899;DHT22;2975;50.956;6.962;2022-11-09T12:34:14;16.20;95.00
5899;DHT22;2975;50.956;6.962;2022-11-09T12:37:02;16.20;94.80
5899;DHT22;2975;50.956;6.962;2022-11-09T12:39:45;16.10;94.70
5899;DHT22;2975;50.956;6.962;2022-11-09T12:42:28;16.20;95.50
5899;DHT22;2975;50.956;6.962;2022-11-09T12:47:30;16.20;94.10
5899;DHT22;2975;50.956;6.962;2022-11-09T12:49:58;16.30;94.50
5899;DHT22;2975;50.956;6.962;2022-11-09T12:52:27;16.40;94.00
5899;DHT22;2975;50.956;6.962;2022-11-09T12:54:53;16.50;94.20
5899;DHT22;2975;50.956;6.962;2022-11-09T12:57:26;16.60;94.10
5899;DHT22;2975;50.956;6.962;2022-11-09T12:59:55;16.80;93.50
5899;DHT22;2975;50.956;6.962;2022-11-09T13:02:32;16.90;93.50
5899;DHT22;2975;50.956;6.962;2022-11-09T13:05:06;17.00;92.60
5899;DHT22;2975;50.956;6.962;2022-11-09T13:07:46;17.10;91.90
5899;DHT22;2975;50.956;6.962;2022-11-09T13:10:35;17.10;91.60
5899;DHT22;2975;50.956;6.962;2022-11-09T13:13:22;17.00;91.60
5899;DHT22;2975;50.956;6.962;2022-11-09T13:18:49;17.00;91.20
5899;DHT22;2975;50.956;6.962;2022-11-09T13:23:56;16.80;91.00
5899;DHT22;2975;50.956;6.962;2022-11-09T13:29:08;16.70;90.60
5899;DHT22;2975;50.956;6.962;2022-11-09T13:43:12;16.60;91.00
5899;DHT22;2975;50.956;6.962;2022-11-09T13:51:14;16.60;91.60
5899;DHT22;2975;50.956;6.962;2022-11-09T13:54:03;16.50;91.50
5899;DHT22;2975;50.956;6.962;2022-11-09T14:01:52;16.30;91.80
5899;DHT22;2975;50.956;6.962;2022-11-09T14:06:49;16.10;92.30
5899;DHT22;2975;50.956;6.962;2022-11-09T14:09:19;16.00;92.30
5899;DHT22;2975;50.956;6.962;2022-11-09T14:12:22;15.90;92.80
5899;DHT22;2975;50.956;6.962;2022-11-09T14:15:09;16.00;93.00
5899;DHT22;2975;50.956;6.962;2022-11-09T14:23:28;16.20;92.80
5899;DHT22;2975;50.956;6.962;2022-11-09T14:25:54;16.20;93.00
5899;DHT22;2975;50.956;6.962;2022-11-09T14:28:21;16.20;92.40
5899;DHT22;2975;50.956;6.962;2022-11-09T14:30:47;16.20;92.80
5899;DHT22;2975;50.956;6.962;2022-11-09T14:33:27;16.20;92.60
5899;DHT22;2975;50.956;6.962;2022-11-09T14:35:56;16.20;92.80
5899;DHT22;2975;50.956;6.962;2022-11-09T14:38:34;16.20;92.80
5899;DHT22;2975;50.956;6.962;2022-11-09T14:41:01;16.10;92.70
5899;DHT22;2975;50.956;6.962;2022-11-09T14:43:33;16.10;92.60
5899;DHT22;2975;50.956;6.962;2022-11-09T14:46:06;16.00;92.70
5899;DHT22;2975;50.956;6.962;2022-11-09T14:48:32;16.00;92.80
5899;DHT22;2975;50.956;6.962;2022-11-09T14:51:01;15.90;92.70
5899;DHT22;2975;50.956;6.962;2022-11-09T14:53:34;15.90;92.90
5899;DHT22;2975;50.956;6.962;2022-11-09T14:56:03;15.80;93.00
5899;DHT22;2975;50.956;6.962;2022-11-09T14:58:30;15.80;93.00
5899;DHT22;2975;50.956;6.962;2022-11-09T15:01:23;15.80;93.20
5899;DHT22;2975;50.956;6.962;2022-11-09T15:04:05;15.80;93.60
5899;DHT22;2975;50.956;6.962;2022-11-09T15:06:32;15.70;93.50
5899;DHT22;2975;50.956;6.962;2022-11-09T15:09:07;15.70;93.90
5899;DHT22;2975;50.956;6.962;2022-11-09T15:11:36;15.60;93.80
5899;DHT22;2975;50.956;6.962;2022-11-09T15:14:14;15.60;94.10
5899;DHT22;2975;50.956;6.962;2022-11-09T15:16:46;15.50;94.40
5899;DHT22;2975;50.956;6.962;2022-11-09T15:19:31;15.50;94.40
5899;DHT22;2975;50.956;6.962;2022-11-09T15:21:57;15.40;94.80
5899;DHT22;2975;50.956;6.962;2022-11-09T15:24:28;15.40;95.10
5899;DHT22;2975;50.956;6.962;2022-11-09T15:26:55;15.30;95.40
5899;DHT22;2975;50.956;6.962;2022-11-09T15:29:37;15.20;95.70
5899;DHT22;2975;50.956;6.962;2022-11-09T15:34:38;14.90;96.40
5899;DHT22;2975;50.956;6.962;2022-11-09T15:37:44;14.80;96.70
5899;DHT22;2975;50.956;6.962;2022-11-09T15:40:13;14.80;97.20
5899;DHT22;2975;50.956;6.962;2022-11-09T15:42:39;14.70;97.50
5899;DHT22;2975;50.956;6.962;2022-11-09T15:45:05;14.60;98.00
5899;DHT22;2975;50.956;6.962;2022-11-09T15:47:35;14.50;98.40
5899;DHT22;2975;50.956;6.962;2022-11-09T15:50:09;14.40;98.80
5899;DHT22;2975;50.956;6.962;2022-11-09T15:52:39;14.30;98.70
5899;DHT22;2975;50.956;6.962;2022-11-09T15:55:05;14.20;99.40
5899;DHT22;2975;50.956;6.962;2022-11-09T15:57:30;14.20;99.90
5899;DHT22;2975;50.956;6.962;2022-11-09T15:59:56;14.10;99.90
5899;DHT22;2975;50.956;6.962;2022-11-09T16:02:24;14.00;99.90
5899;DHT22;2975;50.956;6.962;2022-11-09T16:04:49;13.90;99.90
5899;DHT22;2975;50.956;6.962;2022-11-09T16:07:15;13.80;99.90
5899;DHT22;2975;50.956;6.962;2022-11-09T16:09:42;13.80;99.90
5899;DHT22;2975;50.956;6.962;2022-11-09T16:12:08;13.70;99.90
5899;DHT22;2975;50.956;6.962;2022-11-09T16:14:34;13.60;99.90
5899;DHT22;2975;50.956;6.962;2022-11-09T16:17:00;13.60;99.90
5899;DHT22;2975;50.956;6.962;2022-11-09T16:19:25;13.60;99.90
5899;DHT22;2975;50.956;6.962;2022-11-09T16:21:52;13.50;99.90
5899;DHT22;2975;50.956;6.962;2022-11-09T16:24:17;13.50;99.90
5899;DHT22;2975;50.956;6.962;2022-11-09T16:26:43;13.40;99.90
5899;DHT22;2975;50.956;6.962;2022-11-09T16:29:10;13.40;99.90
5899;DHT22;2975;50.956;6.962;2022-11-09T16:31:36;13.30;99.90
5899;DHT22;2975;50.956;6.962;2022-11-09T16:34:02;13.30;99.90
5899;DHT22;2975;50.956;6.962;2022-11-09T16:36:27;13.20;99.90
5899;DHT22;2975;50.956;6.962;2022-11-09T16:38:54;13.20;99.90
5899;DHT22;2975;50.956;6.962;2022-11-09T16:41:21;13.20;99.90
5899;DHT22;2975;50.956;6.962;2022-11-09T16:43:50;13.10;99.90
5899;DHT22;2975;50.956;6.962;2022-11-09T16:46:20;13.10;99.90
5899;DHT22;2975;50.956;6.962;2022-11-09T16:48:46;13.00;99.90
5899;DHT22;2975;50.956;6.962;2022-11-09T16:51:12;13.00;99.90
5899;DHT22;2975;50.956;6.962;2022-11-09T16:53:37;12.90;99.90
5899;DHT22;2975;50.956;6.962;2022-11-09T16:56:03;12.90;99.90
5899;DHT22;2975;50.956;6.962;2022-11-09T16:58:29;12.80;99.90
5899;DHT22;2975;50.956;6.962;2022-11-09T17:00:55;12.80;99.90
5899;DHT22;2975;50.956;6.962;2022-11-09T17:03:20;12.90;99.90
5899;DHT22;2975;50.956;6.962;2022-11-09T17:05:46;12.90;99.90
5899;DHT22;2975;50.956;6.962;2022-11-09T17:08:12;12.90;99.90
5899;DHT22;2975;50.956;6.962;2022-11-09T17:10:43;12.90;99.90
5899;DHT22;2975;50.956;6.962;2022-11-09T17:13:09;12.90;99.90
5899;DHT22;2975;50.956;6.962;2022-11-09T17:15:43;12.70;99.90
5899;DHT22;2975;50.956;6.962;2022-11-09T17:18:10;12.70;99.90
5899;DHT22;2975;50.956;6.962;2022-11-09T17:20:43;12.60;99.90
5899;DHT22;2975;50.956;6.962;2022-11-09T17:23:10;12.60;99.90
5899;DHT22;2975;50.956;6.962;2022-11-09T17:25:36;12.70;99.90
5899;DHT22;2975;50.956;6.962;2022-11-09T17:28:02;12.70;99.90
5899;DHT22;2975;50.956;6.962;2022-11-09T17:30:28;12.70;99.90
5899;DHT22;2975;50.956;6.962;2022-11-09T17:32:53;12.60;99.90
5899;DHT22;2975;50.956;6.962;2022-11-09T17:35:19;12.60;99.90
5899;DHT22;2975;50.956;6.962;2022-11-09T17:37:45;12.70;99.90
5899;DHT22;2975;50.956;6.962;2022-11-09T17:40:13;12.70;99.90
5899;DHT22;2975;50.956;6.962;2022-11-09T17:42:39;12.80;99.90
5899;DHT22;2975;50.956;6.962;2022-11-09T17:45:04;12.90;99.90
5899;DHT22;2975;50.956;6.962;2022-11-09T17:47:30;13.00;99.90
5899;DHT22;2975;50.956;6.962;2022-11-09T17:49:56;13.00;99.90
5899;DHT22;2975;50.956;6.962;2022-11-09T17:52:21;13.10;99.90
5899;DHT22;2975;50.956;6.962;2022-11-09T17:54:47;13.10;99.90
5899;DHT22;2975;50.956;6.962;2022-11-09T17:57:13;13.10;99.90
5899;DHT22;2975;50.956;6.962;2022-11-09T17:59:40;13.10;99.90
5899;DHT22;2975;50.956;6.962;2022-11-09T18:02:05;13.10;99.90
5899;DHT22;2975;50.956;6.962;2022-11-09T18:04:31;13.00;99.90
5899;DHT22;2975;50.956;6.962;2022-11-09T18:06:56;13.00;99.90
5899;DHT22;2975;50.956;6.962;2022-11-09T18:09:22;12.90;99.90
5899;DHT22;2975;50.956;6.962;2022-11-09T18:11:48;12.90;99.90